This is the latest recevied weather packets stored in our database for station/object LRSB. If no packets are shown the sender has not sent any weather packets the latest 10 day(s).
| Time | Temp. | Humidity | Pressure | Rain* | Wind** | Luminosity | Snow |
|---|---|---|---|---|---|---|---|
| 1777774691 | 2.22° C | 87% | 1021 hPa | - | - | - | - |
| 1777773791 | 2.22° C | 87% | 1021 hPa | - | - | - | - |
| 1777772891 | 3.89° C | 75% | 1021 hPa | - | - | - | - |
| 1777771991 | 3.89° C | 75% | 1021 hPa | - | - | - | - |
| 1777771091 | 5° C | 70% | 1021 hPa | - | - | - | - |
| 1777770192 | 5° C | 70% | 1021 hPa | - | - | - | - |
| 1777769291 | 6.11° C | 66% | 1021 hPa | - | - | - | - |
| 1777768391 | 6.11° C | 66% | 1021 hPa | - | - | - | - |
| 1777767491 | 5° C | 70% | 1021 hPa | - | - | - | - |
| 1777766591 | 5° C | 70% | 1021 hPa | - | - | - | - |
| 1777765691 | 6.11° C | 66% | 1021 hPa | - | - | - | - |
| 1777764791 | 6.11° C | 66% | 1021 hPa | - | - | - | - |
| 1777763891 | 6.11° C | 66% | 1022 hPa | - | - | - | - |
| 1777762991 | 6.11° C | 66% | 1022 hPa | - | - | - | - |
| 1777762091 | 7.22° C | 61% | 1022 hPa | - | - | - | - |
| 1777761191 | 7.22° C | 61% | 1022 hPa | - | - | - | - |
| 1777760291 | 7.78° C | 57% | 1022 hPa | - | - | - | - |
| 1777759391 | 7.78° C | 57% | 1022 hPa | - | - | - | - |
| 1777758491 | 7.78° C | 53% | 1022 hPa | - | - | - | - |
| 1777757592 | 7.78° C | 53% | 1022 hPa | - | - | - | - |
| 1777756691 | 7.78° C | 57% | 1022 hPa | - | - | - | - |
| 1777755791 | 7.78° C | 57% | 1022 hPa | - | - | - | - |
| 1777754891 | 7.78° C | 57% | 1022 hPa | - | - | - | - |
| 1777753991 | 7.78° C | 57% | 1022 hPa | - | - | - | - |
| 1777753092 | 8.89° C | 50% | 1022 hPa | - | - | - | - |
* Rain since midnight (hover to see other rain measurements)
** Current wind speed in m/s (hover to see current wind gust speed)